Gogerbank, United Kingdom
Current Conditions -  °F | °C
As of 3:50 AM on Friday 19 Dec 2014 (Local Time) from EGPH Reporting Station
Scattered Clouds Scattered Clouds  
Wind Chill: 30°   Ceiling: Unl
Heat Index: 39°   Visibility: 6mi
Dew Point: 36°   Wind: 18mph
Humidity: 87%   Direction: 240°WSW
Pressure: 29.47"   Gusts: NA
Location:  55.92°N, 3.32°W
Report Text: EGPH 190350Z 24016KT 9999 FEW015 SCT020 04/02 Q0998
Loading
Personal Weather Stations






























Interactive Weather Map New forecast layout! Learn more

10-Day Weather Forecast

Advertisements
Track Severe Weather on mobile